Time;durP1;ratioP1;P1;durP2;ratioP2;P2;SDS_P1;SDS_P2;PMS_P1;PMS_P2;Temp;Humidity;BMP_temperature;BMP_pressure;BME280_temperature;BME280_humidity;BME280_pressure;Samples;Min_cycle;Max_cycle;Signal;HPM_P1;HPM_P2
2022/05/26 00:00:03;;;;;;;3.98;3.00;;;;;;;23.50;50.98;100670.98;1804009;79;21448;-77
2022/05/26 00:02:29;;;;;;;4.15;2.90;;;;;;;23.50;50.98;100664.86;1793592;79;21483;-77
2022/05/26 00:04:55;;;;;;;4.55;2.92;;;;;;;23.50;50.95;100659.88;1804294;79;21080;-77
2022/05/26 00:07:27;;;;;;;3.55;2.95;;;;;;;23.49;50.98;100653.52;1795015;79;21049;-77
2022/05/26 00:09:54;;;;;;;4.20;3.00;;;;;;;23.50;50.95;100648.77;1808106;78;21135;-77
2022/05/26 00:12:20;;;;;;;5.55;3.02;;;;;;;23.50;50.95;100647.39;1829852;77;21048;-77
2022/05/26 00:14:46;;;;;;;4.58;3.20;;;;;;;23.51;50.94;100651.77;1805088;78;21555;-77
2022/05/26 00:17:13;;;;;;;4.67;2.77;;;;;;;23.49;50.93;100645.19;1829890;78;21375;-77
2022/05/26 00:19:39;;;;;;;3.58;2.83;;;;;;;23.49;50.92;100630.48;1829691;78;21057;-77
2022/05/26 00:22:05;;;;;;;6.22;3.37;;;;;;;23.49;50.89;100617.41;1829595;77;21646;-77
2022/05/26 00:24:32;;;;;;;3.45;2.80;;;;;;;23.48;50.89;100615.78;1759035;81;21160;-77
2022/05/26 00:26:59;;;;;;;4.97;3.20;;;;;;;23.50;50.88;100614.06;1771539;80;21442;-77
2022/05/26 00:29:25;;;;;;;5.15;3.55;;;;;;;23.49;50.87;100593.81;1767648;81;21503;-77
2022/05/26 00:31:51;;;;;;;3.75;3.08;;;;;;;23.48;50.86;100597.73;1767908;80;21084;-77
2022/05/26 00:34:18;;;;;;;3.45;2.95;;;;;;;23.49;50.86;100606.88;1746333;81;21049;-77
2022/05/26 00:36:44;;;;;;;3.87;2.83;;;;;;;23.49;50.85;100606.88;1767888;81;21539;-77
2022/05/26 00:39:15;;;;;;;3.55;3.00;;;;;;;23.48;50.86;100615.78;1768080;81;21040;-78
2022/05/26 00:41:45;;;;;;;3.75;2.67;;;;;;;23.49;50.84;100616.59;1768409;80;21053;-77
2022/05/26 00:44:11;;;;;;;5.33;2.92;;;;;;;23.49;50.86;100628.52;1768042;81;21148;-77
2022/05/26 00:46:52;;;;;;;4.92;3.20;;;;;;;23.48;50.81;100642.16;1768205;81;21089;-77
2022/05/26 00:49:46;;;;;;;4.00;2.98;;;;;;;23.49;50.81;100633.27;1767716;80;21106;-77
2022/05/26 00:52:15;;;;;;;3.98;3.00;;;;;;;23.49;50.79;100620.77;1768327;81;21021;-77
2022/05/26 00:54:47;;;;;;;4.12;3.12;;;;;;;23.47;50.76;100623.06;1767949;81;21072;-77
2022/05/26 00:57:20;;;;;;;4.55;3.40;;;;;;;23.48;50.75;100617.75;1768194;81;21127;-77
2022/05/26 01:00:00;;;;;;;4.47;3.17;;;;;;;23.47;50.75;100601.66;1768256;81;21559;-77
2022/05/26 01:02:33;;;;;;;5.10;2.90;;;;;;;23.46;50.76;100597.28;1768088;81;21553;-77
2022/05/26 01:04:57;;;;;;;3.37;2.95;;;;;;;23.46;50.74;100590.34;1828847;78;20969;-77
2022/05/26 01:07:27;;;;;;;4.47;3.17;;;;;;;23.47;50.75;100598.88;1713280;81;21086;-77
2022/05/26 01:09:54;;;;;;;3.97;3.10;;;;;;;23.46;50.73;100596.47;1801503;79;21036;-77
2022/05/26 01:12:20;;;;;;;4.85;3.05;;;;;;;23.47;50.71;100589.73;1804783;79;21088;-77
2022/05/26 01:15:01;;;;;;;5.03;3.00;;;;;;;23.47;50.73;100595.29;1804731;79;21205;-77
2022/05/26 01:17:34;;;;;;;;;;;;;;;23.46;50.73;100597.28;1807197;79;21041;-77
2022/05/26 01:20:32;;;;;;;3.55;2.95;;;;;;;23.45;50.73;100599.00;1804872;79;20486;-77
2022/05/26 01:23:40;;;;;;;3.80;2.70;;;;;;;23.45;50.70;100621.22;1804678;79;21049;-77
2022/05/26 01:26:35;;;;;;;3.20;2.85;;;;;;;23.44;50.67;100619.58;1733310;82;21134;-77
2022/05/26 01:29:27;;;;;;;3.85;2.80;;;;;;;23.44;50.67;100620.97;1673206;82;21524;-77
2022/05/26 01:32:08;;;;;;;3.67;2.47;;;;;;;23.42;50.65;100626.86;1675822;85;21133;-77
2022/05/26 01:35:06;;;;;;;3.90;2.92;;;;;;;23.42;50.64;100638.53;1645737;85;21099;-77
2022/05/26 01:37:53;;;;;;;4.55;3.08;;;;;;;23.42;50.65;100662.95;1767554;79;21003;-77
2022/05/26 01:40:48;;;;;;;6.05;3.10;;;;;;;23.41;50.65;100657.73;1799299;79;21615;-77
2022/05/26 01:43:33;;;;;;;3.70;2.92;;;;;;;23.41;50.65;100654.95;1733153;82;21436;-77
2022/05/26 01:46:11;;;;;;;4.30;3.22;;;;;;;23.42;50.63;100651.03;1710037;82;20942;-77
2022/05/26 01:48:55;;;;;;;4.17;3.20;;;;;;;23.40;50.66;100663.84;1733345;82;21050;-77
2022/05/26 01:51:36;;;;;;;3.87;2.87;;;;;;;23.40;50.65;100674.14;1733249;82;21077;-77
2022/05/26 01:54:13;;;;;;;;;;;;;;;23.40;50.64;100731.87;1735154;82;21093;-77
2022/05/26 01:56:53;;;;;;;4.17;2.98;;;;;;;23.39;50.66;100802.42;1732167;82;21143;-77
2022/05/26 01:59:23;;;;;;;3.60;3.12;;;;;;;23.39;50.64;100842.69;1729858;82;21548;-77
2022/05/26 02:01:54;;;;;;;3.52;2.70;;;;;;;23.40;50.66;100862.94;1799379;79;21061;-77
2022/05/26 02:04:31;;;;;;;3.00;2.65;;;;;;;23.40;50.64;100862.94;1733316;82;21033;-77
2022/05/26 02:07:09;;;;;;;3.45;2.77;;;;;;;23.40;50.65;100847.09;1733051;82;21051;-77
2022/05/26 02:09:41;;;;;;;4.40;2.62;;;;;;;23.40;50.64;100840.16;1772749;79;21197;-77
2022/05/26 02:12:11;;;;;;;3.05;2.65;;;;;;;23.40;50.64;100824.88;1803906;79;21999;-77
2022/05/26 02:14:58;;;;;;;4.92;2.72;;;;;;;23.41;50.64;100822.35;1795493;79;21084;-77
2022/05/26 02:17:32;;;;;;;3.40;2.62;;;;;;;23.40;50.64;100833.78;1804356;79;21349;-77
2022/05/26 02:20:09;;;;;;;4.40;2.95;;;;;;;23.40;50.60;100837.37;1795634;79;21033;-77
2022/05/26 02:23:02;;;;;;;5.22;3.10;;;;;;;23.41;50.60;100829.30;1804354;79;22094;-77
2022/05/26 02:25:28;;;;;;;3.83;2.90;;;;;;;23.41;50.60;100829.87;1794922;79;21069;-77
2022/05/26 02:27:57;;;;;;;4.90;2.85;;;;;;;23.40;50.59;100819.91;1804427;79;21030;-77
2022/05/26 02:30:31;;;;;;;3.77;2.75;;;;;;;23.40;50.58;100802.67;1773220;79;21112;-77
2022/05/26 02:32:57;;;;;;;3.62;2.70;;;;;;;23.40;50.57;100796.30;1804503;79;21512;-77
2022/05/26 02:35:30;;;;;;;4.30;2.60;;;;;;;23.41;50.58;100800.71;1773197;79;21069;-77
2022/05/26 02:38:17;;;;;;;3.83;2.83;;;;;;;23.41;50.54;100794.59;1804460;79;21045;-77
2022/05/26 02:40:44;;;;;;;4.10;2.90;;;;;;;23.41;50.54;100800.14;1795352;79;21056;-77
2022/05/26 02:43:21;;;;;;;3.75;2.58;;;;;;;23.41;50.56;100798.75;1804559;79;21643;-77
2022/05/26 02:46:27;;;;;;;5.58;2.83;;;;;;;23.42;50.55;100801.78;1794979;79;21481;-77
2022/05/26 02:49:37;;;;;;;4.35;2.85;;;;;;;23.42;50.53;100788.47;1804422;79;21022;-77
2022/05/26 02:52:31;;;;;;;3.72;3.05;;;;;;;23.41;50.49;100755.72;1795105;79;21034;-77
2022/05/26 02:55:06;;;;;;;5.33;2.70;;;;;;;23.40;50.45;100745.75;1801888;79;21021;-77
2022/05/26 02:57:56;;;;;;;3.45;2.47;;;;;;;23.40;50.44;100750.49;1795190;79;21349;-77
2022/05/26 03:00:29;;;;;;;4.25;2.98;;;;;;;23.40;50.45;100762.41;1804540;79;21418;-77
2022/05/26 03:03:16;;;;;;;5.12;3.00;;;;;;;23.39;50.45;100744.12;1795281;79;21102;-77
2022/05/26 03:05:59;;;;;;;3.08;2.70;;;;;;;23.39;50.46;100739.95;1781830;79;21021;-77
2022/05/26 03:08:27;;;;;;;3.95;2.80;;;;;;;23.39;50.45;100742.73;1795077;79;21036;-77
2022/05/26 03:10:56;;;;;;;3.55;2.62;;;;;;;23.39;50.44;100741.91;1801973;79;21030;-77
2022/05/26 03:13:22;;;;;;;3.80;2.72;;;;;;;23.39;50.45;100738.57;1772283;79;21123;-77
2022/05/26 03:15:48;;;;;;;3.40;2.98;;;;;;;23.39;50.45;100729.42;1801469;79;21069;-77
2022/05/26 03:18:17;;;;;;;3.58;3.08;;;;;;;23.40;50.44;100729.09;1795826;79;21026;-77
2022/05/26 03:20:44;;;;;;;3.92;3.00;;;;;;;23.41;50.44;100731.30;1779091;79;20934;-77
2022/05/26 03:23:10;;;;;;;4.45;3.20;;;;;;;23.40;50.43;100737.42;1795376;79;21298;-77
2022/05/26 03:25:36;;;;;;;4.72;2.62;;;;;;;23.41;50.43;100721.58;1801725;79;20998;-77
2022/05/26 03:28:03;;;;;;;3.80;2.90;;;;;;;23.41;50.42;100712.68;1799691;79;21004;-77
2022/05/26 03:30:29;;;;;;;3.90;2.92;;;;;;;23.41;50.40;100694.63;1801446;79;21060;-77
2022/05/26 03:32:55;;;;;;;2.95;2.65;;;;;;;23.42;50.41;100698.23;1795899;79;21465;-77
2022/05/26 03:40:53;;;;;;;3.75;2.70;;;;;;;23.42;50.36;100724.03;1802023;79;21819;-77
2022/05/26 03:43:20;;;;;;;4.65;3.00;;;;;;;23.42;50.35;100725.99;1773572;79;21484;-77
2022/05/26 03:45:46;;;;;;;4.37;2.77;;;;;;;23.42;50.35;100732.36;1801789;79;21029;-77
2022/05/26 03:48:13;;;;;;;3.62;2.60;;;;;;;23.41;50.36;100747.95;1747778;79;21108;-77
2022/05/26 03:50:39;;;;;;;6.33;3.00;;;;;;;23.42;50.35;100750.98;1801685;79;20930;-77
2022/05/26 03:53:06;;;;;;;3.00;2.70;;;;;;;23.43;50.34;100751.19;1795782;79;21207;-77
2022/05/26 03:55:32;;;;;;;4.37;3.08;;;;;;;23.43;50.35;100745.64;1801703;79;21097;-77
2022/05/26 03:58:01;;;;;;;4.83;3.33;;;;;;;23.42;50.31;100736.53;1772854;79;20989;-77
2022/05/26 04:00:27;;;;;;;7.65;3.05;;;;;;;23.42;50.35;100735.14;1779731;79;21527;-77
2022/05/26 04:02:53;;;;;;;5.03;3.72;;;;;;;23.41;50.37;100725.17;1795878;79;20961;-78
2022/05/26 04:05:20;;;;;;;3.72;3.35;;;;;;;23.40;50.43;100715.22;1801612;79;21756;-77
2022/05/26 04:07:46;;;;;;;4.42;3.22;;;;;;;23.40;50.44;100722.73;1795294;79;21056;-78
2022/05/26 04:10:13;;;;;;;4.28;3.40;;;;;;;23.40;50.45;100708.84;1786243;79;21642;-77
2022/05/26 04:12:39;;;;;;;4.67;3.52;;;;;;;23.39;50.48;100701.66;1748465;81;21103;-77
2022/05/26 04:15:07;;;;;;;7.45;3.72;;;;;;;23.39;50.47;100704.44;1760702;80;21092;-77
2022/05/26 04:17:33;;;;;;;4.75;3.70;;;;;;;23.39;50.48;100716.36;1727073;80;21178;-77
2022/05/26 04:20:00;;;;;;;4.37;3.17;;;;;;;23.41;50.49;100722.40;1762413;79;21662;-77
2022/05/26 04:22:32;;;;;;;5.67;3.72;;;;;;;23.41;50.49;100721.02;1749222;82;21490;-77
2022/05/26 04:24:58;;;;;;;7.65;4.17;;;;;;;23.42;50.49;100727.38;1767299;79;21548;-77
2022/05/26 04:27:28;;;;;;;6.37;4.10;;;;;;;23.42;50.51;100722.64;1769406;79;21532;-77
2022/05/26 04:29:54;;;;;;;5.70;4.15;;;;;;;23.44;50.55;100726.48;1743193;80;21101;-77
2022/05/26 04:32:21;;;;;;;10.55;5.70;;;;;;;23.42;50.62;100734.32;1759295;80;21021;-77
2022/05/26 04:34:48;;;;;;;12.33;6.47;;;;;;;23.42;50.72;100733.75;1775658;79;21076;-78
2022/05/26 04:37:23;;;;;;;8.78;5.50;;;;;;;23.41;50.90;100731.30;1775153;80;21548;-77
2022/05/26 04:39:50;;;;;;;9.48;6.05;;;;;;;23.39;51.05;100733.02;1756947;79;21069;-77
2022/05/26 04:42:17;;;;;;;14.93;7.30;;;;;;;23.38;51.23;100738.92;1750872;79;21189;-78
2022/05/26 04:44:44;;;;;;;8.08;6.30;;;;;;;23.36;51.50;100733.70;1768606;78;21046;-78
2022/05/26 04:47:11;;;;;;;10.05;7.37;;;;;;;23.35;51.69;100742.36;1733186;80;21523;-77
2022/05/26 04:49:38;;;;;;;17.32;7.58;;;;;;;23.34;51.92;100743.53;1752829;79;21125;-78
2022/05/26 04:52:08;;;;;;;12.07;7.95;;;;;;;23.32;52.25;100743.86;1734274;80;21197;-82
2022/05/26 04:54:36;;;;;;;16.25;6.97;;;;;;;23.29;52.39;100747.31;1759505;79;22011;-77
2022/05/26 04:57:04;;;;;;;13.45;7.55;;;;;;;23.28;52.56;100754.02;1743985;80;21054;-78
2022/05/26 04:59:30;;;;;;;14.20;7.08;;;;;;;23.27;52.69;100753.77;1765989;79;21081;-76
2022/05/26 05:01:56;;;;;;;16.93;7.97;;;;;;;23.26;52.86;100755.48;1732932;80;21619;-75
2022/05/26 05:04:24;;;;;;;25.02;8.15;;;;;;;23.25;53.01;100762.20;1748785;79;21301;-76
2022/05/26 05:06:53;;;;;;;11.25;7.67;;;;;;;23.28;53.09;100774.83;1755121;79;21476;-75
2022/05/26 05:09:24;;;;;;;17.02;7.50;;;;;;;23.28;53.16;100774.02;1752858;79;21106;-77
2022/05/26 05:11:50;;;;;;;12.58;7.20;;;;;;;23.28;53.22;100772.05;1761229;79;21072;-76
2022/05/26 05:14:17;;;;;;;13.45;6.92;;;;;;;23.30;53.22;100776.68;1756748;79;21159;-78
2022/05/26 05:16:43;;;;;;;12.95;6.95;;;;;;;23.32;53.21;100780.52;1772075;79;21085;-79
2022/05/26 05:19:11;;;;;;;9.55;6.40;;;;;;;23.34;53.25;100786.56;1686397;82;21610;-79
2022/05/26 05:22:11;;;;;;;15.58;7.30;;;;;;;23.35;53.27;100791.76;1769743;78;21013;-77
2022/05/26 05:24:52;;;;;;;13.65;6.25;;;;;;;23.36;53.22;100801.72;1764045;78;21068;-76
2022/05/26 05:27:33;;;;;;;13.35;7.70;;;;;;;23.37;53.12;100792.25;1768633;79;21567;-77
2022/05/26 05:30:03;;;;;;;14.18;8.58;;;;;;;23.39;53.15;100804.38;1766740;79;21292;-76
2022/05/26 05:32:44;;;;;;;10.38;6.75;;;;;;;23.38;53.14;100803.57;1744825;79;22432;-77
2022/05/26 05:35:18;;;;;;;13.72;9.48;;;;;;;23.39;53.24;100806.59;1743438;80;21041;-77
2022/05/26 05:37:45;;;;;;;12.73;7.87;;;;;;;23.40;53.13;100810.19;1756118;80;21038;-78
2022/05/26 05:40:11;;;;;;;19.15;10.30;;;;;;;23.40;53.15;100808.80;1754861;79;20963;-78
2022/05/26 05:42:41;;;;;;;17.80;11.78;;;;;;;23.41;53.16;100813.20;1712183;82;21084;-79
2022/05/26 05:45:09;;;;;;;17.47;10.27;;;;;;;23.41;53.19;100817.38;1717838;80;21741;-78
2022/05/26 05:47:43;;;;;;;21.07;11.70;;;;;;;23.41;53.16;100814.02;1724832;80;21157;-78
2022/05/26 05:50:10;;;;;;;18.02;11.57;;;;;;;23.42;53.17;100812.06;1748748;80;21041;-79
2022/05/26 05:52:36;;;;;;;22.55;12.15;;;;;;;23.42;53.25;100825.38;1746801;79;21069;-81
2022/05/26 05:55:06;;;;;;;23.20;11.65;;;;;;;23.43;53.31;100822.00;1759331;79;21017;-79
2022/05/26 05:57:34;;;;;;;26.52;9.95;;;;;;;23.42;53.30;100828.72;1753094;79;21413;-80
2022/05/26 06:00:01;;;;;;;26.37;9.75;;;;;;;23.43;53.38;100833.95;1761448;79;21066;-78
2022/05/26 06:02:28;;;;;;;25.82;8.80;;;;;;;23.45;53.39;100841.39;1752006;79;21129;-77
2022/05/26 06:04:54;;;;;;;18.37;8.80;;;;;;;23.47;53.40;100834.09;1756263;79;21037;-76
2022/05/26 06:07:21;;;;;;;29.87;8.40;;;;;;;23.51;53.44;100838.64;1756169;79;21121;-79
2022/05/26 06:09:48;;;;;;;23.38;8.35;;;;;;;23.54;53.47;100839.38;1760135;79;21015;-78
2022/05/26 06:12:15;;;;;;;17.65;8.20;;;;;;;23.56;53.52;100838.45;1817612;77;21001;-76
2022/05/26 06:14:44;;;;;;;19.00;9.13;;;;;;;23.57;53.57;100838.69;1832791;76;21091;-76
2022/05/26 06:17:13;;;;;;;17.87;9.70;;;;;;;23.58;53.61;100834.77;1831204;76;21103;-76
2022/05/26 06:19:41;;;;;;;20.45;10.85;;;;;;;23.59;53.57;100832.81;1833389;77;21650;-77
2022/05/26 06:22:11;;;;;;;16.00;10.68;;;;;;;23.59;53.58;100839.75;1844691;76;21275;-77
2022/05/26 06:24:38;;;;;;;21.90;11.18;;;;;;;23.59;53.55;100837.77;1842166;76;21247;-76
2022/05/26 06:29:53;;;;;;;22.32;12.95;;;;;;;23.59;53.55;100836.98;1838486;76;21080;-77
2022/05/26 06:37:50;;;;;;;22.17;11.00;;;;;;;23.62;53.52;100838.50;1751012;77;20990;-77
2022/05/26 06:40:16;;;;;;;19.82;9.85;;;;;;;23.63;53.43;100839.31;1832128;76;21071;-80
2022/05/26 06:42:46;;;;;;;19.82;10.75;;;;;;;23.63;53.32;100842.91;1756477;79;21117;-78
2022/05/26 06:45:14;;;;;;;29.30;13.03;;;;;;;23.64;53.28;100839.53;1770373;79;21108;-77
2022/05/26 06:47:42;;;;;;;21.62;13.03;;;;;;;23.64;53.24;100844.52;1784180;78;21294;-81
2022/05/26 06:50:10;;;;;;;24.85;12.93;;;;;;;23.65;53.24;100841.98;1780444;78;21033;-81
2022/05/26 06:52:39;;;;;;;16.48;10.45;;;;;;;23.67;53.31;100844.44;1787774;77;21151;-83
2022/05/26 06:55:07;;;;;;;24.85;10.28;;;;;;;23.68;53.30;100849.63;1782031;79;21546;-83
2022/05/26 06:57:33;;;;;;;21.27;10.05;;;;;;;23.71;53.26;100850.13;1830783;76;22536;-81
2022/05/26 07:00:09;;;;;;;18.95;9.45;;;;;;;23.73;53.30;100845.03;1828775;76;22061;-81
2022/05/26 07:02:36;;;;;;;20.05;9.53;;;;;;;23.74;53.38;100848.86;1824426;76;21487;-79
2022/05/26 07:05:10;;;;;;;23.42;8.60;;;;;;;23.76;53.40;100850.75;1815473;76;21025;-81
2022/05/26 07:07:46;;;;;;;19.15;8.15;;;;;;;23.76;53.38;100847.16;1829428;77;21048;-82
2022/05/26 07:10:13;;;;;;;18.75;8.80;;;;;;;23.77;53.43;100846.80;1826679;76;21094;-80
2022/05/26 07:12:40;;;;;;;20.12;9.40;;;;;;;23.77;53.43;100850.14;1799194;78;21161;-78
2022/05/26 07:15:08;;;;;;;16.48;8.60;;;;;;;23.77;53.43;100848.75;1822572;76;21108;-79
2022/05/26 07:17:39;;;;;;;17.07;8.85;;;;;;;23.77;53.38;100850.96;1829871;77;21470;-79
2022/05/26 07:20:09;;;;;;;17.87;9.35;;;;;;;23.78;53.36;100852.59;1755927;80;21049;-79
2022/05/26 07:22:36;;;;;;;18.45;9.68;;;;;;;23.79;53.33;100852.84;1815220;77;20965;-80
2022/05/26 07:25:04;;;;;;;23.25;12.13;;;;;;;23.79;53.26;100856.19;1745515;80;21342;-81
2022/05/26 07:27:31;;;;;;;19.00;10.38;;;;;;;23.80;53.24;100862.81;1800394;78;20992;-78
2022/05/26 07:29:58;;;;;;;20.08;10.18;;;;;;;23.80;53.28;100864.20;1817027;77;21085;-76
2022/05/26 07:32:25;;;;;;;25.17;12.30;;;;;;;23.82;53.31;100864.66;1838392;77;21056;-79
2022/05/26 07:34:51;;;;;;;28.12;14.87;;;;;;;23.82;53.18;100862.45;1808950;78;21691;-80
2022/05/26 07:42:52;;;;;;;29.95;16.55;;;;;;;23.83;52.79;100864.08;1829929;76;21391;-76
2022/05/26 07:45:19;;;;;;;27.93;18.95;;;;;;;23.83;52.72;100869.07;1817343;76;21060;-76
2022/05/26 07:47:46;;;;;;;35.15;20.32;;;;;;;23.82;52.61;100871.60;1828269;76;21056;-78
2022/05/26 07:50:19;;;;;;;32.03;17.67;;;;;;;23.82;52.58;100874.37;1823056;77;22040;-79
2022/05/26 07:52:41;;;;;;;24.35;13.38;;;;;;;23.82;52.54;100885.50;1816834;77;21052;-81
2022/05/26 07:55:10;;;;;;;20.00;12.35;;;;;;;23.85;52.67;100882.03;1818874;77;21157;-78
2022/05/26 07:57:37;;;;;;;25.97;10.28;;;;;;;23.88;52.63;100888.90;1819311;76;20917;-78
2022/05/26 08:00:04;;;;;;;20.48;9.90;;;;;;;23.92;52.68;100898.18;1810097;77;21734;-79
2022/05/26 08:02:30;;;;;;;22.00;10.23;;;;;;;23.92;52.61;100899.00;1818233;76;21498;-76
2022/05/26 08:04:57;;;;;;;15.93;8.80;;;;;;;23.94;52.41;100900.03;1798111;77;21052;-76
2022/05/26 08:07:23;;;;;;;23.18;10.75;;;;;;;23.96;52.37;100894.97;1822125;76;21586;-77
2022/05/26 08:09:50;;;;;;;20.82;8.23;;;;;;;23.97;52.50;100897.41;1812577;77;21044;-76
2022/05/26 08:12:16;;;;;;;26.90;10.48;;;;;;;23.98;52.75;100893.46;1819500;76;21588;-77
2022/05/26 08:14:49;;;;;;;23.05;11.90;;;;;;;24.00;52.77;100895.91;1726583;80;21185;-77
2022/05/26 08:17:17;;;;;;;23.98;12.98;;;;;;;23.99;52.70;100900.66;1762867;79;21081;-77
2022/05/26 08:19:44;;;;;;;24.65;12.75;;;;;;;23.99;52.67;100892.31;1750383;79;21593;-77
2022/05/26 08:22:10;;;;;;;19.60;11.88;;;;;;;23.99;52.68;100897.06;1733440;79;21567;-77
2022/05/26 08:24:36;;;;;;;21.02;11.90;;;;;;;23.99;52.61;100897.87;1748193;79;21083;-77
2022/05/26 08:27:03;;;;;;;20.92;10.90;;;;;;;23.98;52.57;100896.81;1767821;79;21109;-76
2022/05/26 08:29:38;;;;;;;23.60;13.40;;;;;;;23.97;52.52;100894.64;1788389;78;21068;-76
2022/05/26 08:32:05;;;;;;;22.87;12.55;;;;;;;23.97;52.45;100899.38;1767522;80;21045;-76
2022/05/26 08:34:32;;;;;;;16.07;9.00;;;;;;;23.96;52.38;100897.17;1756769;80;21156;-77
2022/05/26 08:36:58;;;;;;;22.27;10.85;;;;;;;23.97;52.43;100904.36;1769784;80;21612;-77
2022/05/26 08:39:25;;;;;;;18.77;11.60;;;;;;;23.97;52.38;100902.16;1775871;78;21220;-77
2022/05/26 08:41:52;;;;;;;27.17;12.07;;;;;;;23.97;52.34;100893.25;1755503;79;21515;-76
2022/05/26 08:44:34;;;;;;;19.25;9.70;;;;;;;23.97;52.35;100897.41;1763654;79;21634;-77
2022/05/26 08:47:10;;;;;;;22.00;9.43;;;;;;;23.98;52.25;100892.64;1770871;77;21119;-78
2022/05/26 08:49:42;;;;;;;19.73;9.10;;;;;;;23.99;52.32;100904.83;1765097;79;21056;-76
2022/05/26 08:52:20;;;;;;;15.28;6.42;;;;;;;24.00;52.35;100887.58;1742077;80;21463;-83
2022/05/26 08:55:03;;;;;;;13.40;4.85;;;;;;;24.04;52.32;100887.14;1728170;79;21117;-83
2022/05/26 08:57:43;;;;;;;21.97;5.72;;;;;;;24.08;52.42;100897.23;1757649;79;21692;-83
2022/05/26 09:00:13;;;;;;;16.30;4.08;;;;;;;24.11;52.46;100898.52;1760245;79;21037;-80
2022/05/26 09:02:40;;;;;;;8.83;4.00;;;;;;;24.13;52.34;100900.39;1768152;79;21073;-80
2022/05/26 09:05:15;;;;;;;15.98;6.37;;;;;;;24.15;52.11;100895.33;1766020;79;21065;-81
2022/05/26 09:13:27;;;;;;;14.68;7.62;;;;;;;24.13;52.40;100887.31;1801254;78;21511;-81
2022/05/26 09:15:53;;;;;;;20.20;8.25;;;;;;;24.11;52.46;100895.73;1836570;77;21101;-79
2022/05/26 09:18:25;;;;;;;15.53;7.83;;;;;;;24.10;52.56;100903.25;1836713;76;21637;-80
2022/05/26 09:20:52;;;;;;;20.57;6.87;;;;;;;24.10;52.66;100899.09;1819275;76;21019;-80
2022/05/26 09:23:28;;;;;;;17.60;8.08;;;;;;;24.08;52.69;100898.63;1826757;77;21012;-80
2022/05/26 09:26:08;;;;;;;17.48;7.55;;;;;;;24.07;52.76;100901.16;1822837;77;21128;-80
2022/05/26 09:28:48;;;;;;;16.37;8.13;;;;;;;24.07;52.82;100897.56;1801842;78;21084;-80
2022/05/26 09:31:33;;;;;;;15.80;7.75;;;;;;;24.07;52.90;100885.06;1818392;76;22331;-81
2022/05/26 09:34:10;;;;;;;14.50;7.67;;;;;;;24.06;52.93;100880.67;1831579;77;21641;-80
2022/05/26 09:36:59;;;;;;;14.55;8.05;;;;;;;24.05;52.96;100892.94;1834378;77;21496;-80
2022/05/26 09:39:37;;;;;;;12.90;7.45;;;;;;;24.06;52.95;100876.51;1824439;76;21083;-79
2022/05/26 09:42:20;;;;;;;13.93;7.70;;;;;;;24.04;52.94;100885.17;1815111;78;21657;-80
2022/05/26 09:44:56;;;;;;;18.02;6.75;;;;;;;24.04;52.94;100879.61;1799051;77;21509;-78
2022/05/26 09:47:31;;;;;;;11.15;6.50;;;;;;;24.02;52.91;100885.26;1818509;78;21223;-81
2022/05/26 09:50:00;;;;;;;8.63;5.80;;;;;;;24.02;52.91;100889.42;1835231;76;21096;-80
2022/05/26 09:52:31;;;;;;;10.45;4.90;;;;;;;24.02;52.83;100896.38;1797317;76;21068;-80
2022/05/26 09:55:29;;;;;;;15.85;4.20;;;;;;;24.03;52.75;100892.45;1830462;77;21028;-80
2022/05/26 09:58:14;;;;;;;8.85;4.47;;;;;;;24.08;52.72;100890.86;1823046;77;21170;-81
2022/05/26 10:00:47;;;;;;;19.27;4.12;;;;;;;24.12;52.69;100889.84;1827286;77;21023;-80
2022/05/26 10:03:57;;;;;;;8.68;3.80;;;;;;;24.17;52.84;100884.69;1832444;76;21023;-78
2022/05/26 10:06:48;;;;;;;10.53;3.10;;;;;;;24.17;52.88;100879.70;1826593;77;21026;-82
2022/05/26 10:09:40;;;;;;;15.25;3.67;;;;;;;24.21;52.74;100888.42;1829749;76;21041;-81
2022/05/26 10:12:21;;;;;;;15.65;3.67;;;;;;;24.26;52.56;100879.05;1807993;77;21139;-81
2022/05/26 10:15:01;;;;;;;8.33;2.75;;;;;;;24.27;52.42;100884.86;1822754;77;21059;-79
2022/05/26 10:17:39;;;;;;;11.08;3.83;;;;;;;24.26;52.16;100878.48;1802091;77;27136;-80
2022/05/26 10:20:31;;;;;;;13.35;4.47;;;;;;;24.25;52.15;100878.24;1817815;77;21065;-82
2022/05/26 10:23:26;;;;;;;10.35;4.12;;;;;;;24.24;52.21;100877.18;1828690;77;21066;-81
2022/05/26 10:26:09;;;;;;;15.58;5.12;;;;;;;24.20;52.26;100882.61;1786390;77;21147;-82
2022/05/26 10:28:44;;;;;;;9.28;4.08;;;;;;;24.17;52.35;100874.96;1837588;77;21097;-81
2022/05/26 10:31:54;;;;;;;13.65;4.83;;;;;;;24.15;52.38;100888.37;1820215;76;21044;-80
2022/05/26 10:34:51;;;;;;;12.40;4.90;;;;;;;24.15;52.29;100877.25;1748951;81;21675;-82
2022/05/26 10:37:48;;;;;;;12.95;4.83;;;;;;;24.12;52.21;100873.74;1762086;79;21602;-82
2022/05/26 10:40:31;;;;;;;10.95;5.30;;;;;;;24.12;52.20;100862.62;1812103;77;21023;-84
2022/05/26 10:43:11;;;;;;;12.88;5.12;;;;;;;24.11;52.22;100862.38;1776630;78;21020;-86
2022/05/26 10:45:41;;;;;;;15.78;4.95;;;;;;;24.10;52.33;100856.61;1810292;77;28399;-82
2022/05/26 10:48:13;;;;;;;12.18;4.58;;;;;;;24.09;52.34;100852.20;1818142;77;21150;-83
2022/05/26 10:50:50;;;;;;;15.08;4.10;;;;;;;24.09;52.37;100848.02;1821915;77;21043;-85
2022/05/26 10:53:44;;;;;;;12.30;3.80;;;;;;;24.09;52.36;100844.67;1816060;77;22239;-82
2022/05/26 10:56:33;;;;;;;8.23;3.45;;;;;;;24.11;52.40;100849.30;1763209;79;21590;-83
2022/05/26 10:59:13;;;;;;;13.22;4.05;;;;;;;24.14;52.47;100844.44;1739705;79;21594;-81
2022/05/26 11:02:18;;;;;;;15.28;4.10;;;;;;;24.21;52.66;100843.94;1709671;80;21100;-79
2022/05/26 11:05:06;;;;;;;9.73;3.50;;;;;;;24.24;52.79;100841.85;1751842;80;21591;-83
2022/05/26 11:07:44;;;;;;;12.35;4.80;;;;;;;24.26;52.78;100837.36;1762440;81;21067;-83
2022/05/26 11:10:28;;;;;;;13.20;4.10;;;;;;;24.26;52.77;100835.39;1772437;79;21495;-84
2022/05/26 11:12:59;;;;;;;10.28;3.37;;;;;;;24.25;52.82;100839.31;1827066;76;21042;-79
2022/05/26 11:18:36;;;;;;;8.48;3.52;;;;;;;24.24;52.70;100829.91;1788849;79;21037;-78
2022/05/26 11:21:02;;;;;;;5.37;3.25;;;;;;;24.24;52.55;100831.30;1770740;79;22409;-78
2022/05/26 11:23:32;;;;;;;12.63;4.45;;;;;;;24.21;52.46;100836.98;1776987;79;21098;-77
2022/05/26 11:26:03;;;;;;;6.62;3.30;;;;;;;24.22;52.40;100833.63;1753847;79;21112;-77
2022/05/26 11:28:51;;;;;;;7.40;3.95;;;;;;;24.21;52.28;100831.42;1747184;80;21057;-79
2022/05/26 11:37:35;;;;;;;6.10;3.00;;;;;;;24.19;51.76;100819.03;1722521;81;21039;-77
2022/05/26 11:40:08;;;;;;;6.10;3.30;;;;;;;24.18;51.68;100825.17;1811663;77;21475;-78
2022/05/26 11:42:49;;;;;;;6.20;3.00;;;;;;;24.17;51.56;100819.94;1836040;76;21077;-80
2022/05/26 11:45:26;;;;;;;6.53;3.60;;;;;;;24.17;51.43;100815.77;1765132;80;21122;-81
2022/05/26 11:48:34;;;;;;;5.42;2.87;;;;;;;24.16;51.45;100804.41;1794864;79;21017;-78
2022/05/26 11:51:14;;;;;;;11.55;3.25;;;;;;;24.16;51.25;100804.41;1748114;79;21211;-79
2022/05/26 11:53:44;;;;;;;11.50;2.77;;;;;;;24.15;50.92;100803.59;1787528;79;21061;-80
2022/05/26 11:56:30;;;;;;;13.13;3.67;;;;;;;24.16;50.76;100805.22;1769234;79;21124;-79
2022/05/26 11:59:34;;;;;;;15.00;2.62;;;;;;;24.19;50.73;100797.58;1816333;76;21058;-78
2022/05/26 12:02:14;;;;;;;13.65;2.85;;;;;;;24.23;50.54;100797.13;1833184;76;21206;-79
2022/05/26 12:04:43;;;;;;;12.20;3.12;;;;;;;24.29;50.32;100795.77;1768213;79;21137;-80
2022/05/26 12:07:24;;;;;;;10.40;3.08;;;;;;;24.34;50.23;100790.00;1786578;78;21079;-82
2022/05/26 12:09:57;;;;;;;14.83;3.40;;;;;;;24.36;50.26;100795.20;1789537;79;21569;-80
2022/05/26 12:12:30;;;;;;;9.38;3.70;;;;;;;24.34;50.21;100794.17;1791170;79;21109;-80
2022/05/26 12:15:03;;;;;;;14.05;4.40;;;;;;;24.33;50.33;100797.28;1798177;78;21270;-78
2022/05/26 12:17:45;;;;;;;8.78;3.77;;;;;;;24.32;50.60;100786.73;1787277;79;21054;-77
2022/05/26 12:20:18;;;;;;;13.55;4.58;;;;;;;24.32;50.77;100786.73;1831494;75;21060;-78
2022/05/26 12:22:53;;;;;;;8.95;4.10;;;;;;;24.30;50.87;100792.42;1823179;76;21017;-77